Time;durP1;ratioP1;P1;durP2;ratioP2;P2;SDS_P1;SDS_P2;PMS_P1;PMS_P2;Temp;Humidity;BMP_temperature;BMP_pressure;BME280_temperature;BME280_humidity;BME280_pressure;Samples;Min_cycle;Max_cycle;Signal;HPM_P1;HPM_P2
2022/09/28 00:02:07;;;;;;;2.70;0.80;;;;;;;11.20;100.00;98343.13;5058874;28;20516;-51
2022/09/28 00:04:33;;;;;;;2.77;0.90;;;;;;;11.25;100.00;98338.41;5065358;28;20480;-52
2022/09/28 00:07:00;;;;;;;1.23;1.13;;;;;;;11.18;100.00;98339.72;5058525;28;20883;-52
2022/09/28 00:09:26;;;;;;;1.13;0.70;;;;;;;11.14;100.00;98336.41;5062658;28;20450;-52
2022/09/28 00:11:53;;;;;;;0.50;0.50;;;;;;;10.96;100.00;98325.13;5059709;28;20900;-51
2022/09/28 00:14:20;;;;;;;1.20;1.10;;;;;;;11.07;100.00;98324.44;5055243;28;20470;-52
2022/09/28 00:16:47;;;;;;;0.50;0.50;;;;;;;11.13;100.00;98324.06;5059214;28;20470;-53
2022/09/28 00:19:14;;;;;;;0.43;0.30;;;;;;;10.95;100.00;98319.88;5062837;28;21024;-53
2022/09/28 00:21:41;;;;;;;0.67;0.40;;;;;;;11.08;100.00;98307.53;5059399;28;20959;-53
2022/09/28 00:24:12;;;;;;;1.17;0.40;;;;;;;10.94;100.00;98310.19;5055937;28;20474;-52
2022/09/28 00:26:44;;;;;;;1.67;0.77;;;;;;;10.89;100.00;98299.84;5057671;28;20936;-53
2022/09/28 00:29:37;;;;;;;0.60;0.40;;;;;;;10.80;100.00;98299.56;5062117;28;20970;-55
2022/09/28 00:32:05;;;;;;;0.70;0.57;;;;;;;10.88;100.00;98295.50;5059355;28;20978;-52
2022/09/28 00:34:38;;;;;;;0.40;0.30;;;;;;;10.94;100.00;98300.41;5058983;28;20469;-53
2022/09/28 00:37:07;;;;;;;0.43;0.40;;;;;;;11.05;100.00;98286.47;5055832;28;20500;-53
2022/09/28 00:39:35;;;;;;;5.40;0.57;;;;;;;10.99;100.00;98278.88;5060978;28;20495;-53
2022/09/28 00:42:03;;;;;;;0.37;0.27;;;;;;;10.93;100.00;98272.13;5063889;28;20450;-52
2022/09/28 00:44:39;;;;;;;2.43;0.53;;;;;;;10.88;100.00;98263.59;5060530;28;20466;-53
2022/09/28 00:47:30;;;;;;;0.60;0.50;;;;;;;10.76;100.00;98269.66;5061910;28;20454;-53
2022/09/28 00:49:59;;;;;;;0.40;0.30;;;;;;;10.88;100.00;98260.09;5035253;28;20454;-52
2022/09/28 00:52:49;;;;;;;0.77;0.43;;;;;;;10.78;100.00;98257.13;5058901;28;20450;-53
2022/09/28 00:55:21;;;;;;;0.40;0.40;;;;;;;10.93;100.00;98252.66;5046002;28;21024;-52
2022/09/28 00:57:51;;;;;;;0.40;0.30;;;;;;;10.98;100.00;98238.16;5071248;28;20493;-52
2022/09/28 01:00:18;;;;;;;4.10;1.53;;;;;;;11.06;100.00;98242.97;5060912;28;20449;-52
2022/09/28 01:02:46;;;;;;;0.40;0.40;;;;;;;11.02;100.00;98244.13;5058631;28;20450;-53
2022/09/28 01:05:13;;;;;;;0.47;0.33;;;;;;;11.12;100.00;98242.59;5063822;28;20454;-52
2022/09/28 01:07:43;;;;;;;0.60;0.40;;;;;;;11.06;100.00;98235.00;5066362;28;20801;-52
2022/09/28 01:10:09;;;;;;;5.73;0.63;;;;;;;11.13;100.00;98230.16;5061649;28;20446;-54
2022/09/28 01:12:35;;;;;;;2.10;1.03;;;;;;;11.10;100.00;98235.63;5058844;28;20517;-52
2022/09/28 01:15:04;;;;;;;1.03;0.87;;;;;;;11.13;100.00;98238.13;5063302;28;20532;-52
2022/09/28 01:17:48;;;;;;;1.60;1.50;;;;;;;11.08;100.00;98221.59;5065800;28;20962;-51
2022/09/28 01:20:39;;;;;;;0.93;0.40;;;;;;;11.08;100.00;98226.91;5063763;28;20946;-53
2022/09/28 01:23:36;;;;;;;0.50;0.40;;;;;;;11.37;100.00;98228.53;5063910;28;20482;-52
2022/09/28 01:26:33;;;;;;;0.50;0.33;;;;;;;11.41;100.00;98226.56;5065318;28;20523;-52
2022/09/28 01:29:28;;;;;;;0.60;0.50;;;;;;;11.28;100.00;98227.34;5065691;28;20495;-52
2022/09/28 01:32:17;;;;;;;0.70;0.70;;;;;;;11.29;100.00;98225.53;5039296;28;20449;-53
2022/09/28 01:35:16;;;;;;;0.83;0.50;;;;;;;11.26;100.00;98221.28;5026554;28;20470;-52
2022/09/28 01:37:51;;;;;;;2.00;0.40;;;;;;;11.22;100.00;98222.41;5045306;28;21014;-51
2022/09/28 01:40:23;;;;;;;0.30;0.20;;;;;;;11.34;100.00;98223.44;5058454;28;20449;-51
2022/09/28 01:42:55;;;;;;;0.40;0.30;;;;;;;11.33;100.00;98223.53;5061012;28;20462;-51
2022/09/28 01:45:27;;;;;;;1.03;0.47;;;;;;;11.51;100.00;98219.66;5065342;28;20454;-52
2022/09/28 01:48:00;;;;;;;5.30;0.80;;;;;;;11.48;100.00;98218.06;5064315;28;20507;-53
2022/09/28 01:50:29;;;;;;;1.93;0.60;;;;;;;11.38;100.00;98216.97;5050244;28;20964;-52
2022/09/28 01:53:05;;;;;;;0.40;0.30;;;;;;;11.44;100.00;98211.25;5070486;28;20511;-52
2022/09/28 01:55:42;;;;;;;1.27;0.70;;;;;;;11.40;100.00;98209.75;5060527;28;20848;-51
2022/09/28 01:58:12;;;;;;;1.30;1.20;;;;;;;11.47;100.00;98211.03;5067056;28;20536;-53
2022/09/28 02:00:43;;;;;;;3.63;0.87;;;;;;;11.72;100.00;98214.75;5063011;28;21162;-52
2022/09/28 02:03:17;;;;;;;1.07;1.00;;;;;;;11.45;100.00;98207.63;5057889;28;20470;-53
2022/09/28 02:05:54;;;;;;;0.70;0.70;;;;;;;11.24;100.00;98201.06;5070323;28;20450;-53
2022/09/28 02:08:20;;;;;;;1.00;0.90;;;;;;;11.10;100.00;98201.97;5063270;28;20442;-51
2022/09/28 02:10:51;;;;;;;1.37;1.27;;;;;;;11.13;100.00;98207.06;5064607;28;20515;-52
2022/09/28 02:13:27;;;;;;;0.60;0.53;;;;;;;11.07;100.00;98201.28;5060405;28;20495;-52
2022/09/28 02:16:01;;;;;;;0.83;0.80;;;;;;;11.09;100.00;98200.22;5057499;28;20483;-54
2022/09/28 02:18:28;;;;;;;0.70;0.70;;;;;;;11.08;100.00;98205.63;5059965;28;20521;-53
2022/09/28 02:21:07;;;;;;;6.23;1.80;;;;;;;11.10;100.00;98199.31;5064439;28;20477;-54
2022/09/28 02:23:37;;;;;;;1.20;0.70;;;;;;;11.09;100.00;98204.69;5064622;28;20466;-53
2022/09/28 02:26:12;;;;;;;1.03;1.03;;;;;;;11.17;100.00;98195.28;5063818;28;20501;-53
2022/09/28 02:28:39;;;;;;;4.70;0.80;;;;;;;10.92;100.00;98193.34;5064126;28;20507;-52
2022/09/28 02:31:05;;;;;;;1.10;0.80;;;;;;;10.85;100.00;98185.88;5059445;28;20458;-52
2022/09/28 02:33:38;;;;;;;4.73;0.70;;;;;;;10.77;100.00;98175.72;5057570;28;21087;-53
2022/09/28 02:36:05;;;;;;;0.60;0.60;;;;;;;10.82;100.00;98178.06;5061846;28;20884;-53
2022/09/28 02:38:32;;;;;;;0.60;0.50;;;;;;;10.94;100.00;98183.44;5064098;28;20749;-53
2022/09/28 02:41:08;;;;;;;0.77;0.70;;;;;;;10.93;100.00;98189.72;5060164;28;20453;-53
2022/09/28 02:43:43;;;;;;;1.53;0.70;;;;;;;10.96;100.00;98193.97;5057175;28;20542;-53
2022/09/28 02:46:21;;;;;;;0.73;0.73;;;;;;;10.88;100.00;98199.81;5058774;28;20449;-53
2022/09/28 02:49:20;;;;;;;1.43;0.77;;;;;;;10.88;100.00;98193.63;5045100;28;20869;-53
2022/09/28 02:52:02;;;;;;;0.50;0.43;;;;;;;10.92;100.00;98200.44;5054235;28;20792;-52
2022/09/28 02:55:08;;;;;;;0.70;0.40;;;;;;;10.87;100.00;98198.09;5057368;28;20533;-55
2022/09/28 02:58:02;;;;;;;0.60;0.60;;;;;;;10.76;100.00;98191.75;5068873;28;20458;-56
2022/09/28 03:00:34;;;;;;;1.53;1.43;;;;;;;10.74;100.00;98201.63;5060813;28;20999;-57
2022/09/28 03:03:34;;;;;;;1.10;0.60;;;;;;;10.76;100.00;98197.06;5063736;28;20802;-56
2022/09/28 03:06:07;;;;;;;0.87;0.87;;;;;;;10.73;100.00;98195.47;5041353;28;20463;-56
2022/09/28 03:08:40;;;;;;;0.70;0.50;;;;;;;10.58;100.00;98193.78;5061000;28;20447;-56
2022/09/28 03:11:17;;;;;;;0.50;0.50;;;;;;;10.51;100.00;98189.78;5063805;28;20508;-57
2022/09/28 03:13:43;;;;;;;4.70;1.23;;;;;;;10.45;100.00;98196.34;5061617;28;20466;-56
2022/09/28 03:16:13;;;;;;;0.80;0.77;;;;;;;10.33;100.00;98197.94;5055833;28;20507;-56
2022/09/28 03:18:40;;;;;;;1.97;0.83;;;;;;;10.24;100.00;98200.28;5058285;28;20564;-56
2022/09/28 03:21:09;;;;;;;1.93;1.40;;;;;;;10.04;100.00;98204.97;5063143;28;20516;-56
2022/09/28 03:23:36;;;;;;;1.20;0.70;;;;;;;10.06;100.00;98204.88;5062692;28;20470;-57
2022/09/28 03:26:02;;;;;;;0.63;0.63;;;;;;;10.11;100.00;98202.78;5056563;28;20511;-56
2022/09/28 03:28:29;;;;;;;1.53;0.50;;;;;;;9.93;100.00;98194.16;5057058;28;20450;-56
2022/09/28 03:30:56;;;;;;;0.57;0.53;;;;;;;10.03;100.00;98205.06;5062886;28;20473;-56
2022/09/28 03:33:22;;;;;;;0.40;0.30;;;;;;;10.31;100.00;98218.41;5062322;28;20561;-56
2022/09/28 03:35:49;;;;;;;0.60;0.60;;;;;;;10.44;100.00;98204.41;5057037;28;20871;-57
2022/09/28 03:38:17;;;;;;;0.80;0.80;;;;;;;10.61;100.00;98206.84;5062870;28;20454;-57
2022/09/28 03:40:52;;;;;;;0.70;0.70;;;;;;;10.78;100.00;98206.66;5063197;28;20450;-57
2022/09/28 03:43:18;;;;;;;0.40;0.30;;;;;;;10.47;100.00;98206.84;5062860;28;20504;-57
2022/09/28 03:45:51;;;;;;;0.57;0.40;;;;;;;10.39;100.00;98200.19;5057286;28;20934;-57
2022/09/28 03:48:22;;;;;;;1.13;1.00;;;;;;;10.28;100.00;98197.38;5055980;28;20966;-56
2022/09/28 03:50:57;;;;;;;1.30;0.40;;;;;;;10.19;100.00;98199.69;5065270;28;20446;-57
2022/09/28 03:53:24;;;;;;;0.40;0.40;;;;;;;10.15;100.00;98203.50;5064700;28;20516;-57
2022/09/28 03:55:52;;;;;;;2.90;0.73;;;;;;;10.10;100.00;98211.72;5060967;28;20442;-56
2022/09/28 03:58:21;;;;;;;0.67;0.60;;;;;;;9.95;100.00;98212.63;5063127;28;20469;-56
2022/09/28 04:00:49;;;;;;;0.40;0.30;;;;;;;9.89;100.00;98208.56;5061449;28;20453;-56
2022/09/28 04:03:15;;;;;;;0.67;0.67;;;;;;;9.78;100.00;98201.22;5055869;28;20484;-57
2022/09/28 04:05:52;;;;;;;0.50;0.30;;;;;;;9.78;100.00;98201.22;5056532;28;20454;-55
2022/09/28 04:08:19;;;;;;;0.60;0.50;;;;;;;9.65;100.00;98194.91;5043510;28;20519;-57
2022/09/28 04:10:46;;;;;;;0.60;0.53;;;;;;;9.65;100.00;98208.19;5055187;28;20577;-57
2022/09/28 04:13:13;;;;;;;3.07;1.27;;;;;;;9.66;100.00;98198.44;5061665;28;20489;-56
2022/09/28 04:15:39;;;;;;;0.50;0.40;;;;;;;9.70;100.00;98210.56;5062231;28;20476;-56
2022/09/28 04:18:12;;;;;;;3.90;2.30;;;;;;;9.65;100.00;98209.97;5056434;28;20500;-56
2022/09/28 04:20:44;;;;;;;7.43;6.90;;;;;;;9.73;100.00;98213.91;5055082;28;20455;-56
2022/09/28 04:23:11;;;;;;;2.40;2.20;;;;;;;9.75;100.00;98201.41;5059730;28;21011;-56
2022/09/28 04:25:38;;;;;;;1.80;0.80;;;;;;;9.65;100.00;98208.19;5062564;28;20457;-56
2022/09/28 04:30:50;;;;;;;1.23;1.20;;;;;;;9.73;100.00;98208.59;5055441;28;20499;-56
2022/09/28 04:33:16;;;;;;;3.13;0.87;;;;;;;9.52;100.00;98209.84;5056454;28;20462;-56
2022/09/28 04:35:43;;;;;;;1.20;1.10;;;;;;;9.49;100.00;98208.22;5061789;28;20462;-57
2022/09/28 04:38:09;;;;;;;6.13;2.10;;;;;;;9.48;100.00;98211.81;5061287;28;20519;-56
2022/09/28 04:40:35;;;;;;;1.17;0.87;;;;;;;9.54;100.00;98213.25;5055393;28;20516;-56
2022/09/28 04:43:02;;;;;;;3.27;0.70;;;;;;;9.54;100.00;98210.59;5056264;28;20467;-57
2022/09/28 04:45:28;;;;;;;1.10;1.00;;;;;;;9.39;100.00;98219.44;5062124;28;20943;-56
2022/09/28 04:47:55;;;;;;;3.60;1.73;;;;;;;9.18;100.00;98216.19;5061300;28;20953;-56
2022/09/28 04:50:21;;;;;;;0.57;0.57;;;;;;;9.11;100.00;98215.69;5055340;28;20449;-55
2022/09/28 04:52:47;;;;;;;1.83;0.70;;;;;;;9.16;100.00;98218.09;5068997;28;20454;-55
2022/09/28 04:55:15;;;;;;;0.80;0.80;;;;;;;9.03;100.00;98217.06;5062162;28;20897;-56
2022/09/28 04:57:42;;;;;;;0.73;0.73;;;;;;;8.81;100.00;98223.56;5048833;28;20508;-57
2022/09/28 05:00:10;;;;;;;0.80;0.80;;;;;;;8.84;100.00;98223.38;5061184;28;21003;-55
2022/09/28 05:02:36;;;;;;;0.87;0.73;;;;;;;8.72;100.00;98225.84;5061874;28;20507;-56
2022/09/28 05:05:03;;;;;;;6.80;0.83;;;;;;;8.64;100.00;98236.88;5054443;28;20979;-56
2022/09/28 05:07:30;;;;;;;2.83;0.80;;;;;;;8.69;100.00;98228.66;5055307;28;20447;-56
2022/09/28 05:09:56;;;;;;;1.40;1.30;;;;;;;8.60;100.00;98236.16;5060710;28;20450;-55
2022/09/28 05:12:23;;;;;;;2.00;1.03;;;;;;;8.58;100.00;98237.19;5062537;28;20920;-55
2022/09/28 05:14:49;;;;;;;0.60;0.50;;;;;;;8.49;100.00;98246.47;5056855;28;20516;-56
2022/09/28 05:17:16;;;;;;;0.70;0.40;;;;;;;8.44;100.00;98234.41;5054938;28;20508;-56
2022/09/28 05:19:42;;;;;;;0.90;0.80;;;;;;;8.46;100.00;98240.47;5060049;28;20494;-56
2022/09/28 05:22:13;;;;;;;0.60;0.50;;;;;;;8.39;100.00;98239.09;5061666;28;20912;-56
2022/09/28 05:24:40;;;;;;;1.07;1.07;;;;;;;8.52;100.00;98237.53;5057646;28;20519;-55
2022/09/28 05:27:06;;;;;;;0.60;0.40;;;;;;;8.52;100.00;98242.81;5055101;28;20450;-56
2022/09/28 05:29:32;;;;;;;0.90;0.90;;;;;;;8.51;100.00;98246.41;5059375;28;20454;-56
2022/09/28 05:32:00;;;;;;;0.50;0.30;;;;;;;8.47;100.00;98252.78;5061460;28;20507;-55
2022/09/28 05:34:27;;;;;;;0.47;0.47;;;;;;;8.40;100.00;98252.25;5057507;28;20559;-55
2022/09/28 05:36:54;;;;;;;0.80;0.70;;;;;;;8.41;100.00;98256.63;5054547;28;20879;-56
2022/09/28 05:39:20;;;;;;;0.40;0.20;;;;;;;8.44;100.00;98258.25;5059162;28;20490;-56
2022/09/28 05:41:46;;;;;;;1.00;0.47;;;;;;;8.39;100.00;98258.50;5065045;28;20971;-56
2022/09/28 05:44:13;;;;;;;0.50;0.50;;;;;;;8.37;100.00;98268.31;5061506;28;20473;-56
2022/09/28 05:46:39;;;;;;;0.40;0.40;;;;;;;8.52;100.00;98264.00;5058181;28;20452;-57
2022/09/28 05:49:05;;;;;;;0.73;0.73;;;;;;;8.47;100.00;98269.50;5061793;28;20504;-56
2022/09/28 05:51:32;;;;;;;0.73;0.40;;;;;;;8.65;100.00;98269.50;5054698;28;20457;-57
2022/09/28 05:53:59;;;;;;;6.27;0.73;;;;;;;8.72;100.00;98268.22;5061633;28;20490;-57
2022/09/28 05:56:31;;;;;;;0.47;0.40;;;;;;;8.93;100.00;98272.38;5069174;28;20503;-56
2022/09/28 05:58:57;;;;;;;0.93;0.93;;;;;;;8.79;100.00;98285.50;5060746;28;20620;-57
2022/09/28 06:01:24;;;;;;;8.03;1.17;;;;;;;8.83;100.00;98281.75;5064726;28;20877;-57
2022/09/28 06:03:50;;;;;;;0.60;0.57;;;;;;;8.92;100.00;98278.63;5062578;28;20478;-57
2022/09/28 06:06:17;;;;;;;0.60;0.53;;;;;;;8.97;100.00;98281.84;5066295;28;20513;-57
2022/09/28 06:08:45;;;;;;;1.43;0.53;;;;;;;8.95;100.00;98286.38;5062439;28;20450;-56
2022/09/28 06:11:11;;;;;;;0.40;0.30;;;;;;;9.00;100.00;98286.13;5057699;28;20458;-57
2022/09/28 06:13:38;;;;;;;0.50;0.43;;;;;;;9.07;100.00;98283.06;5059510;28;20528;-57
2022/09/28 06:16:06;;;;;;;0.40;0.30;;;;;;;9.09;100.00;98286.50;5064612;28;20870;-56
2022/09/28 06:18:33;;;;;;;0.80;0.60;;;;;;;9.02;100.00;98284.25;5063418;28;20460;-57
2022/09/28 06:21:00;;;;;;;1.17;0.80;;;;;;;9.27;100.00;98286.41;5057352;28;20539;-57
2022/09/28 06:23:26;;;;;;;0.77;0.77;;;;;;;9.31;100.00;98287.94;5058694;28;20927;-57
2022/09/28 06:25:53;;;;;;;1.23;0.73;;;;;;;9.50;100.00;98286.84;5064335;28;20450;-57
2022/09/28 06:28:19;;;;;;;0.80;0.80;;;;;;;9.48;100.00;98288.72;5063417;28;20507;-57
2022/09/28 06:30:46;;;;;;;0.63;0.53;;;;;;;9.71;100.00;98294.50;5057650;28;20446;-57
2022/09/28 06:33:13;;;;;;;0.50;0.47;;;;;;;9.65;100.00;98289.56;5058663;28;21062;-57
2022/09/28 06:35:41;;;;;;;0.40;0.40;;;;;;;9.77;100.00;98297.69;5064335;28;20831;-58
2022/09/28 06:38:07;;;;;;;2.10;1.20;;;;;;;9.97;100.00;98295.66;5063465;28;20454;-57
2022/09/28 06:40:35;;;;;;;0.50;0.40;;;;;;;9.99;100.00;98302.56;5057067;28;20868;-56
2022/09/28 06:43:05;;;;;;;2.20;0.50;;;;;;;10.28;100.00;98302.69;5056502;28;20564;-57
2022/09/28 06:45:31;;;;;;;0.50;0.43;;;;;;;10.29;100.00;98294.66;5044798;28;20522;-56
2022/09/28 06:48:00;;;;;;;0.40;0.30;;;;;;;10.40;100.00;98291.34;5057461;28;20462;-57
2022/09/28 06:50:32;;;;;;;0.50;0.40;;;;;;;10.33;100.00;98296.19;5065684;28;20843;-57
2022/09/28 06:52:59;;;;;;;0.60;0.60;;;;;;;10.46;100.00;98306.06;5068995;28;20535;-57
2022/09/28 06:55:27;;;;;;;0.50;0.40;;;;;;;10.49;100.00;98301.44;5058239;28;20461;-57
2022/09/28 06:57:58;;;;;;;0.40;0.30;;;;;;;10.43;100.00;98301.81;5068202;28;20458;-57
2022/09/28 07:00:36;;;;;;;0.63;0.30;;;;;;;10.42;100.00;98304.56;5059125;28;20493;-56
2022/09/28 07:03:25;;;;;;;0.50;0.47;;;;;;;10.47;100.00;98308.63;5055516;28;20978;-56
2022/09/28 07:06:13;;;;;;;0.73;0.30;;;;;;;10.63;100.00;98312.06;5055652;28;20467;-57
2022/09/28 07:08:52;;;;;;;0.77;0.67;;;;;;;10.62;100.00;98322.78;5059227;28;20497;-57
2022/09/28 07:11:45;;;;;;;0.90;0.30;;;;;;;10.58;100.00;98327.44;5047863;28;20935;-57
2022/09/28 07:14:48;;;;;;;;;;;;;;;;;;;;;
2022/09/28 07:17:38;;;;;;;0.50;0.40;;;;;;;10.84;100.00;98333.00;5056695;28;20447;-56
2022/09/28 07:20:36;;;;;;;0.57;0.57;;;;;;;11.32;100.00;98337.06;5056006;28;20486;-56
2022/09/28 07:23:26;;;;;;;0.77;0.77;;;;;;;10.95;100.00;98338.47;5050141;28;20476;-56
2022/09/28 07:26:01;;;;;;;1.23;0.80;;;;;;;11.13;100.00;98347.16;5056364;28;21107;-57
2022/09/28 07:28:38;;;;;;;1.80;0.30;;;;;;;10.96;100.00;98351.69;5056921;28;20993;-57
2022/09/28 07:31:11;;;;;;;1.00;0.40;;;;;;;11.18;100.00;98363.66;5045205;28;20445;-56
2022/09/28 07:33:51;;;;;;;0.40;0.30;;;;;;;11.21;100.00;98366.97;5055975;28;20471;-57
2022/09/28 07:36:19;;;;;;;1.03;0.80;;;;;;;11.13;100.00;98368.41;5059266;28;20483;-57
2022/09/28 07:38:49;;;;;;;0.60;0.60;;;;;;;11.32;100.00;98373.44;5062898;28;20443;-57
2022/09/28 07:41:31;;;;;;;0.50;0.40;;;;;;;11.45;100.00;98367.25;5060305;28;21024;-56
2022/09/28 07:44:06;;;;;;;0.50;0.40;;;;;;;11.69;99.79;98370.16;5041562;28;20477;-57
2022/09/28 07:46:42;;;;;;;1.57;0.80;;;;;;;11.28;99.00;98380.75;5055924;28;20451;-57
2022/09/28 07:49:14;;;;;;;0.93;0.90;;;;;;;11.44;99.87;98373.53;5060650;28;20446;-57
2022/09/28 07:51:45;;;;;;;0.77;0.50;;;;;;;11.43;99.92;98377.13;5067289;28;20444;-57
2022/09/28 07:54:25;;;;;;;0.40;0.30;;;;;;;11.62;99.85;98383.94;5056977;28;20890;-57
2022/09/28 07:56:59;;;;;;;0.50;0.40;;;;;;;11.71;99.68;98378.06;5049250;28;20478;-57
2022/09/28 07:59:39;;;;;;;2.97;0.70;;;;;;;11.82;99.48;98387.09;5059263;28;20577;-57
2022/09/28 08:02:08;;;;;;;2.67;0.57;;;;;;;12.23;98.83;98386.22;5058777;28;20852;-55
2022/09/28 08:04:35;;;;;;;0.57;0.30;;;;;;;12.26;96.60;98391.31;5055557;28;20484;-55
2022/09/28 08:07:01;;;;;;;0.47;0.37;;;;;;;12.25;95.20;98396.75;5059133;28;20457;-55
2022/09/28 08:09:28;;;;;;;0.50;0.37;;;;;;;12.33;95.10;98410.41;5062604;28;20824;-56
2022/09/28 08:11:56;;;;;;;0.50;0.30;;;;;;;12.25;93.98;98397.63;5058398;28;20453;-52
2022/09/28 08:14:23;;;;;;;0.50;0.47;;;;;;;12.37;92.81;98414.59;5054303;28;20478;-53
2022/09/28 08:16:51;;;;;;;0.50;0.40;;;;;;;12.18;93.19;98411.41;5057965;28;20512;-54
2022/09/28 08:19:18;;;;;;;0.40;0.30;;;;;;;12.02;93.27;98416.91;5061043;28;20915;-53
2022/09/28 08:21:45;;;;;;;1.50;0.90;;;;;;;12.12;93.63;98421.53;5060164;28;20813;-52
2022/09/28 08:24:16;;;;;;;0.50;0.50;;;;;;;12.30;93.17;98415.94;5055249;28;20497;-53
2022/09/28 08:26:43;;;;;;;0.70;0.60;;;;;;;12.72;90.19;98428.22;5057122;28;20455;-53
2022/09/28 08:29:10;;;;;;;1.47;0.30;;;;;;;12.78;89.91;98434.97;5061942;28;20508;-53
2022/09/28 08:31:36;;;;;;;0.50;0.30;;;;;;;12.88;90.04;98433.38;5061105;28;20472;-53
2022/09/28 08:34:03;;;;;;;1.30;0.50;;;;;;;12.87;90.75;98435.19;5055245;28;20531;-53
2022/09/28 08:36:29;;;;;;;0.60;0.60;;;;;;;12.88;90.75;98436.03;5055574;28;20502;-54
2022/09/28 08:38:55;;;;;;;0.37;0.30;;;;;;;12.88;89.82;98441.38;5062750;28;20481;-54
2022/09/28 08:41:54;;;;;;;0.40;0.30;;;;;;;13.07;90.40;98433.00;5059814;28;20547;-55
2022/09/28 08:44:23;;;;;;;0.40;0.30;;;;;;;13.16;89.09;98433.22;5050364;28;20478;-53
2022/09/28 08:47:04;;;;;;;0.40;0.30;;;;;;;13.40;87.15;98437.84;5062012;28;20980;-53
2022/09/28 08:49:37;;;;;;;0.50;0.40;;;;;;;13.44;88.60;98434.88;5057563;28;20497;-54
2022/09/28 08:52:07;;;;;;;5.37;0.47;;;;;;;13.46;86.75;98432.09;5043200;28;20446;-54
2022/09/28 08:54:43;;;;;;;0.67;0.40;;;;;;;13.55;86.52;98432.25;5055728;28;20486;-56
2022/09/28 08:57:21;;;;;;;0.50;0.43;;;;;;;13.32;86.16;98441.91;5068648;28;20445;-56
2022/09/28 08:59:53;;;;;;;1.73;0.50;;;;;;;13.71;85.30;98439.22;5055568;28;20496;-56
2022/09/28 09:02:38;;;;;;;1.60;0.47;;;;;;;13.55;84.89;98442.09;5056646;28;20455;-57
2022/09/28 09:05:13;;;;;;;4.00;0.30;;;;;;;13.69;83.75;98441.97;5044408;28;20907;-56
2022/09/28 09:08:00;;;;;;;0.50;0.50;;;;;;;14.21;83.37;98443.56;5055183;28;20450;-56
2022/09/28 09:10:43;;;;;;;0.40;0.30;;;;;;;13.76;82.07;98442.41;5056412;28;20493;-53
2022/09/28 09:13:30;;;;;;;0.40;0.30;;;;;;;13.82;84.29;98448.16;5044333;28;20519;-55
2022/09/28 09:16:15;;;;;;;0.40;0.30;;;;;;;13.69;84.87;98446.47;5058252;28;20846;-54
2022/09/28 09:18:53;;;;;;;0.40;0.30;;;;;;;13.99;83.03;98448.78;5059556;28;20466;-54
2022/09/28 09:21:40;;;;;;;0.40;0.30;;;;;;;14.34;81.84;98451.53;5048888;28;20493;-54
2022/09/28 09:24:17;;;;;;;0.60;0.43;;;;;;;14.49;79.88;98451.28;5058570;28;20465;-56
2022/09/28 09:26:44;;;;;;;0.40;0.30;;;;;;;14.58;77.22;98449.75;5059479;28;20429;-56
2022/09/28 09:29:26;;;;;;;1.03;0.53;;;;;;;14.13;80.15;98451.31;5065342;28;20454;-56
2022/09/28 09:32:06;;;;;;;7.97;0.70;;;;;;;14.06;80.30;98456.22;5065279;28;20450;-56
2022/09/28 09:34:44;;;;;;;0.40;0.30;;;;;;;14.17;81.25;98458.13;5062448;28;20469;-56
2022/09/28 09:37:50;;;;;;;0.50;0.47;;;;;;;14.01;81.19;98453.03;5058248;28;20450;-56
2022/09/28 09:40:26;;;;;;;0.60;0.60;;;;;;;14.01;80.78;98455.72;5058165;28;21080;-56
2022/09/28 09:43:11;;;;;;;0.40;0.30;;;;;;;14.08;79.17;98453.44;5059617;28;20512;-56
2022/09/28 09:45:56;;;;;;;0.40;0.30;;;;;;;14.20;79.03;98450.72;5046745;28;20468;-56
2022/09/28 09:48:46;;;;;;;0.60;0.40;;;;;;;14.05;78.48;98462.53;5058128;28;20475;-56
2022/09/28 09:51:25;;;;;;;0.60;0.33;;;;;;;14.07;79.09;98463.28;5047817;28;20451;-56
2022/09/28 09:53:59;;;;;;;0.40;0.30;;;;;;;13.80;79.36;98458.09;5063166;28;20545;-59
2022/09/28 09:56:37;;;;;;;0.50;0.33;;;;;;;14.04;79.00;98457.31;5067282;28;20943;-56
2022/09/28 09:59:16;;;;;;;2.30;0.40;;;;;;;14.29;77.65;98459.91;5060509;28;20485;-56
2022/09/28 10:01:43;;;;;;;0.40;0.30;;;;;;;14.23;77.28;98465.69;5058348;28;20546;-56
2022/09/28 10:04:19;;;;;;;0.57;0.57;;;;;;;14.05;77.42;98457.19;5057991;28;20577;-57
2022/09/28 10:06:48;;;;;;;1.73;0.83;;;;;;;13.97;76.95;98456.03;5046476;28;20869;-57
2022/09/28 10:09:42;;;;;;;0.50;0.30;;;;;;;14.00;79.03;98461.16;5057781;28;20962;-57
2022/09/28 10:12:14;;;;;;;0.40;0.37;;;;;;;14.12;78.40;98458.47;5059224;28;20447;-57
2022/09/28 10:14:40;;;;;;;5.80;0.40;;;;;;;13.83;78.56;98465.03;5064294;28;21058;-57
2022/09/28 10:17:14;;;;;;;0.60;0.33;;;;;;;13.81;80.74;98470.47;5064537;28;20456;-57
2022/09/28 10:19:41;;;;;;;2.00;0.87;;;;;;;14.03;79.45;98468.97;5063587;28;20442;-56
2022/09/28 10:22:16;;;;;;;0.40;0.30;;;;;;;14.19;79.10;98470.41;5064400;28;20445;-57
2022/09/28 10:24:47;;;;;;;0.50;0.43;;;;;;;14.08;79.33;98478.34;5060076;28;20527;-57
2022/09/28 10:27:22;;;;;;;0.77;0.70;;;;;;;14.20;78.81;98476.59;5056116;28;20450;-56
2022/09/28 10:29:53;;;;;;;0.60;0.40;;;;;;;13.81;80.23;98475.81;5060465;28;20454;-57
2022/09/28 10:32:23;;;;;;;0.40;0.30;;;;;;;13.80;79.52;98475.94;5064449;28;20455;-57
2022/09/28 10:34:51;;;;;;;3.03;0.40;;;;;;;14.00;77.91;98472.72;5062405;28;20881;-57
2022/09/28 10:37:18;;;;;;;0.60;0.40;;;;;;;14.20;77.48;98488.13;5056923;28;20446;-57
2022/09/28 10:39:49;;;;;;;0.47;0.33;;;;;;;14.20;77.45;98474.78;5058609;28;20451;-56
2022/09/28 10:42:19;;;;;;;0.50;0.40;;;;;;;14.29;77.16;98489.31;5064081;28;20446;-56
2022/09/28 10:44:51;;;;;;;0.40;0.30;;;;;;;14.33;76.33;98489.94;5064360;28;20531;-57
2022/09/28 10:47:20;;;;;;;0.37;0.30;;;;;;;14.20;76.66;98489.97;5058629;28;20457;-57
2022/09/28 10:49:49;;;;;;;0.50;0.40;;;;;;;14.22;76.73;98490.69;5055870;28;21285;-57
2022/09/28 10:52:39;;;;;;;1.43;0.63;;;;;;;14.21;77.84;98497.88;5059383;28;21012;-56
2022/09/28 10:55:31;;;;;;;0.57;0.37;;;;;;;14.47;77.99;98497.81;5056966;28;20960;-57
2022/09/28 10:57:59;;;;;;;0.30;0.20;;;;;;;14.30;78.59;98500.84;5067808;28;20446;-57
2022/09/28 11:00:40;;;;;;;0.33;0.27;;;;;;;14.26;77.72;98502.91;5059497;28;20895;-57
2022/09/28 11:03:19;;;;;;;0.40;0.30;;;;;;;14.28;77.10;98494.75;5056726;28;20523;-57
2022/09/28 11:06:12;;;;;;;0.40;0.30;;;;;;;14.50;77.10;98498.44;5057349;28;20500;-57
2022/09/28 11:08:42;;;;;;;1.00;0.80;;;;;;;14.41;77.60;98499.09;5055257;28;20522;-57
2022/09/28 11:11:14;;;;;;;0.40;0.30;;;;;;;14.55;76.53;98498.13;5056836;28;21014;-57
2022/09/28 11:13:52;;;;;;;0.30;0.20;;;;;;;14.65;75.38;98492.94;5058632;28;21034;-57
2022/09/28 11:16:28;;;;;;;1.77;1.13;;;;;;;14.83;73.93;98496.94;5063464;28;20450;-57
2022/09/28 11:18:56;;;;;;;0.30;0.20;;;;;;;14.82;75.29;98484.53;5063362;28;20496;-57
2022/09/28 11:21:26;;;;;;;0.40;0.30;;;;;;;14.63;74.89;98492.19;5057362;28;20459;-57
2022/09/28 11:24:17;;;;;;;7.80;0.33;;;;;;;14.93;74.92;98494.41;5056164;28;20470;-57
2022/09/28 11:26:49;;;;;;;0.60;0.60;;;;;;;14.59;76.91;98494.25;5057108;28;20450;-57
2022/09/28 11:29:31;;;;;;;0.30;0.30;;;;;;;14.87;75.84;98482.34;5063344;28;20948;-56
2022/09/28 11:32:03;;;;;;;0.40;0.40;;;;;;;14.96;76.16;98491.50;5063368;28;20442;-57
2022/09/28 11:34:35;;;;;;;0.50;0.50;;;;;;;14.92;74.97;98492.69;5056751;28;20466;-57
2022/09/28 11:37:46;;;;;;;1.37;0.30;;;;;;;14.68;75.83;98482.03;5054476;28;20553;-57
2022/09/28 11:40:37;;;;;;;0.40;0.30;;;;;;;14.37;76.02;98486.06;5056152;28;20497;-56
2022/09/28 11:43:16;;;;;;;0.50;0.40;;;;;;;14.42;77.40;98492.78;5055861;28;20898;-56
2022/09/28 11:46:07;;;;;;;0.40;0.30;;;;;;;14.58;77.67;98491.69;5044573;28;20496;-56
2022/09/28 11:48:46;;;;;;;1.13;1.03;;;;;;;14.46;76.34;98496.13;5052013;28;20458;-52
2022/09/28 11:51:21;;;;;;;0.40;0.30;;;;;;;14.48;76.55;98492.34;5049929;28;20474;-54
2022/09/28 11:53:54;;;;;;;0.80;0.50;;;;;;;14.91;77.18;98480.28;5057193;28;20539;-52
2022/09/28 11:56:34;;;;;;;0.50;0.33;;;;;;;15.00;75.61;98487.63;5056629;28;20936;-53
2022/09/28 11:59:17;;;;;;;0.40;0.30;;;;;;;15.22;72.84;98479.69;5058258;28;20469;-53
2022/09/28 12:01:55;;;;;;;0.50;0.50;;;;;;;15.25;73.34;98482.13;5042737;28;20478;-54
2022/09/28 12:04:36;;;;;;;0.50;0.30;;;;;;;15.41;71.84;98473.75;5069883;28;20501;-52